createdAt,value
2023-11-24T00:01:10.235Z,6.65
2023-11-24T00:06:14.245Z,6.66
2023-11-24T00:11:16.502Z,6.62
2023-11-24T00:16:18.720Z,6.58
2023-11-24T00:21:21.255Z,6.54
2023-11-24T00:26:23.247Z,6.60
2023-11-24T00:31:32.556Z,6.59
2023-11-24T00:36:35.453Z,6.58
2023-11-24T00:41:37.458Z,6.61
2023-11-24T00:46:39.479Z,6.64
2023-11-24T00:51:41.504Z,6.68
2023-11-24T00:56:43.523Z,6.66
2023-11-24T01:01:45.592Z,6.61
2023-11-24T01:06:47.569Z,6.56
2023-11-24T01:11:50.144Z,6.49
2023-11-24T01:16:52.211Z,6.20
2023-11-24T01:24:49.026Z,3.88
2023-11-24T01:29:54.403Z,3.58
2023-11-24T01:40:01.946Z,3.74
2023-11-24T01:45:10.796Z,4.01
2023-11-24T01:50:13.042Z,4.21
2023-11-24T01:55:17.395Z,4.31
2023-11-24T02:00:20.169Z,4.39
2023-11-24T02:05:23.047Z,4.48
2023-11-24T02:10:25.229Z,4.56
2023-11-24T02:15:27.443Z,4.63
2023-11-24T02:20:34.510Z,4.68
2023-11-24T02:25:36.600Z,4.77
2023-11-24T02:30:38.836Z,4.86
2023-11-24T02:35:43.723Z,4.93
2023-11-24T02:40:45.811Z,4.94
2023-11-24T02:45:48.039Z,4.98
2023-11-24T02:50:50.323Z,5.00
2023-11-24T02:55:52.568Z,5.03
2023-11-24T03:00:54.879Z,5.11
2023-11-24T03:05:57.244Z,5.17
2023-11-24T03:10:59.849Z,5.21
2023-11-24T03:16:07.536Z,5.26
2023-11-24T03:21:09.494Z,5.28
2023-11-24T03:26:12.127Z,5.31
2023-11-24T03:31:14.215Z,5.26
2023-11-24T03:36:17.636Z,5.23
2023-11-24T03:41:19.599Z,5.22
2023-11-24T03:46:22.254Z,5.23
2023-11-24T03:51:24.333Z,5.21
2023-11-24T03:56:26.881Z,5.22
2023-11-24T04:01:29.357Z,5.22
2023-11-24T04:06:31.887Z,5.22
2023-11-24T04:11:34.261Z,5.21
2023-11-24T04:16:37.869Z,5.24
2023-11-24T04:21:42.227Z,5.28
2023-11-24T04:26:44.763Z,5.27
2023-11-24T04:31:46.871Z,5.27
2023-11-24T04:36:49.306Z,5.28
2023-11-24T04:41:51.342Z,5.28
2023-11-24T04:46:53.719Z,5.26
2023-11-24T04:57:19.709Z,4.56
2023-11-24T05:07:19.270Z,3.59
2023-11-24T05:12:21.277Z,3.52
2023-11-24T05:17:23.274Z,3.43
2023-11-24T05:22:25.413Z,3.35
2023-11-24T05:27:27.504Z,3.29
2023-11-24T05:32:29.486Z,3.24
2023-11-24T05:37:35.585Z,3.16
2023-11-24T05:42:42.123Z,3.15
2023-11-24T05:47:44.149Z,3.24
2023-11-24T05:52:46.174Z,3.21
2023-11-24T05:57:51.835Z,3.23
2023-11-24T06:07:59.456Z,3.28
2023-11-24T06:28:16.529Z,3.20
2023-11-24T06:38:27.057Z,3.42
2023-11-24T06:43:29.759Z,3.46
2023-11-24T06:53:55.614Z,3.58
2023-11-24T06:58:57.721Z,3.58
2023-11-24T07:04:04.434Z,3.66
2023-11-24T07:09:07.551Z,3.75
2023-11-24T07:19:19.240Z,4.23
2023-11-24T07:24:21.451Z,4.28
2023-11-24T07:50:52.762Z,5.02
2023-11-24T08:39:09.448Z,4.82
2023-11-24T08:44:12.748Z,4.98
2023-11-24T08:49:14.141Z,5.11
2023-11-24T08:54:15.527Z,5.20
2023-11-24T08:59:16.945Z,5.13
2023-11-24T09:04:22.795Z,5.13
2023-11-24T09:09:24.439Z,5.24
2023-11-24T09:14:25.717Z,5.29
2023-11-24T09:19:27.103Z,5.30
2023-11-24T09:24:28.635Z,5.28
2023-11-24T09:29:30.265Z,5.38
2023-11-24T09:34:32.130Z,5.56
2023-11-24T09:39:33.491Z,5.74
2023-11-24T09:44:36.487Z,5.85
2023-11-24T09:49:40.864Z,5.91
2023-11-24T09:54:43.237Z,5.96
2023-11-24T09:59:44.571Z,6.02
2023-11-24T10:04:45.843Z,6.23
2023-11-24T10:09:51.260Z,6.33
2023-11-24T10:14:54.844Z,6.27
2023-11-24T10:19:56.058Z,6.21
2023-11-24T10:24:59.220Z,6.06
2023-11-24T10:30:00.440Z,5.96
2023-11-24T10:35:01.864Z,6.00
2023-11-24T10:40:09.722Z,6.09
2023-11-24T10:45:12.134Z,6.17
2023-11-24T10:50:16.816Z,6.31
2023-11-24T10:55:18.276Z,6.67
2023-11-24T11:00:21.370Z,6.66
2023-11-24T11:05:28.578Z,6.64
2023-11-24T11:10:36.786Z,6.75
2023-11-24T11:15:41.378Z,6.89
2023-11-24T11:20:45.261Z,6.94
2023-11-24T11:25:51.273Z,6.96
2023-11-24T11:31:00.144Z,6.85
2023-11-24T11:36:05.929Z,6.78
2023-11-24T11:41:07.300Z,6.76
2023-11-24T11:46:10.583Z,6.70
2023-11-24T11:51:17.248Z,6.58
2023-11-24T11:56:21.522Z,6.46
2023-11-24T12:01:23.080Z,6.32
2023-11-24T12:06:25.281Z,6.20
2023-11-24T12:11:27.388Z,6.21
2023-11-24T12:16:33.097Z,6.30
2023-11-24T12:21:38.764Z,6.28
2023-11-24T12:26:40.256Z,6.33
2023-11-24T12:31:42.940Z,6.36
2023-11-24T12:36:45.328Z,6.36
2023-11-24T12:41:47.284Z,6.35
2023-11-24T12:46:49.209Z,6.25
2023-11-24T12:51:50.729Z,6.29
2023-11-24T12:56:52.670Z,6.46
2023-11-24T13:01:54.626Z,6.49
2023-11-24T13:06:56.122Z,6.50
2023-11-24T13:12:00.400Z,6.52
2023-11-24T13:17:05.293Z,6.39
2023-11-24T13:22:09.878Z,6.20
2023-11-24T13:27:11.271Z,5.99
2023-11-24T13:32:12.632Z,5.80
2023-11-24T13:37:14.045Z,5.64
2023-11-24T13:42:17.037Z,5.57
2023-11-24T13:47:18.288Z,5.57
2023-11-24T13:52:19.676Z,5.66
2023-11-24T13:57:20.944Z,5.78
2023-11-24T14:02:22.569Z,5.75
2023-11-24T14:07:25.452Z,5.60
2023-11-24T14:12:27.124Z,5.48
2023-11-24T14:17:28.391Z,5.45
2023-11-24T14:22:30.018Z,5.45
2023-11-24T14:27:31.184Z,5.38
2023-11-24T14:32:33.147Z,5.29
2023-11-24T14:37:34.459Z,5.20
2023-11-24T14:42:35.996Z,5.16
2023-11-24T14:47:37.436Z,5.05
2023-11-24T14:52:38.754Z,4.98
2023-11-24T14:57:40.138Z,4.91
2023-11-24T15:07:47.518Z,4.73
2023-11-24T15:12:49.320Z,4.63
2023-11-24T15:22:58.811Z,4.45
2023-11-24T15:28:02.945Z,4.27
2023-11-24T15:33:04.405Z,4.18
2023-11-24T15:38:05.689Z,4.00
2023-11-24T15:43:07.028Z,3.84
2023-11-24T15:48:09.039Z,3.75
2023-11-24T15:53:13.530Z,3.70
2023-11-24T15:58:15.470Z,3.67
2023-11-24T16:03:18.141Z,3.82
2023-11-24T16:08:21.510Z,3.99
2023-11-24T16:13:26.133Z,4.11
2023-11-24T16:18:35.050Z,4.28
2023-11-24T16:23:33.452Z,4.30
2023-11-24T16:28:34.768Z,4.16
2023-11-24T16:33:38.064Z,4.00
2023-11-24T16:38:40.267Z,3.84
2023-11-24T16:43:41.910Z,3.70
2023-11-24T16:48:46.689Z,3.55
2023-11-24T16:53:48.242Z,3.47
2023-11-24T16:58:49.572Z,3.50
2023-11-24T17:03:50.979Z,3.58
2023-11-24T17:08:52.863Z,3.66
2023-11-24T17:13:54.862Z,3.67
2023-11-24T17:18:57.422Z,3.64
2023-11-24T17:23:58.964Z,3.49
2023-11-24T17:29:02.624Z,3.36
2023-11-24T17:34:04.093Z,3.22
2023-11-24T17:39:07.454Z,3.10
2023-11-24T17:44:12.758Z,3.01
2023-11-24T17:49:17.702Z,2.89
2023-11-24T17:54:21.731Z,2.76
2023-11-24T17:59:23.742Z,2.61
2023-11-24T18:04:25.207Z,2.55
2023-11-24T18:09:26.682Z,2.52
2023-11-24T18:14:28.028Z,2.52
2023-11-24T18:19:29.379Z,2.63
2023-11-24T18:24:30.706Z,2.76
2023-11-24T18:29:32.020Z,2.89
2023-11-24T18:39:37.561Z,3.13
2023-11-24T18:44:39.320Z,3.23
2023-11-24T18:49:46.083Z,3.29
2023-11-24T18:54:49.306Z,3.40
2023-11-24T18:59:51.390Z,3.46
2023-11-24T19:04:55.967Z,3.46
2023-11-24T19:15:08.819Z,3.56
2023-11-24T19:20:13.136Z,3.62
2023-11-24T19:25:15.973Z,3.62
2023-11-24T19:30:17.470Z,3.60
2023-11-24T19:35:19.154Z,3.44
2023-11-24T19:40:20.681Z,3.23
2023-11-24T19:45:22.499Z,3.12
2023-11-24T19:50:24.880Z,2.98
2023-11-24T19:55:26.337Z,2.88
2023-11-24T20:00:27.927Z,2.87
2023-11-24T20:05:31.134Z,2.93
2023-11-24T20:10:34.960Z,3.01
2023-11-24T20:15:36.432Z,3.08
2023-11-24T20:20:41.684Z,3.24
2023-11-24T20:25:43.152Z,3.26
2023-11-24T20:30:45.335Z,3.29
2023-11-24T20:35:46.910Z,3.35
2023-11-24T20:40:52.263Z,3.41
2023-11-24T20:45:54.274Z,3.45
2023-11-24T20:50:57.413Z,3.54
2023-11-24T20:56:00.043Z,3.54
2023-11-24T21:01:01.716Z,3.45
2023-11-24T21:06:03.902Z,3.32
2023-11-24T21:11:05.371Z,3.30
2023-11-24T21:16:07.696Z,3.23
2023-11-24T21:21:09.840Z,3.14
2023-11-24T21:26:11.549Z,3.06
2023-11-24T21:31:13.852Z,3.01
2023-11-24T21:36:19.876Z,2.91
2023-11-24T21:41:21.891Z,2.89
2023-11-24T21:46:23.898Z,2.86
2023-11-24T21:51:26.112Z,2.85
2023-11-24T21:56:29.497Z,2.78
2023-11-24T22:01:33.209Z,2.74
2023-11-24T22:06:40.969Z,2.76
2023-11-24T22:11:42.447Z,2.73
2023-11-24T22:16:44.739Z,2.69
2023-11-24T22:21:46.540Z,2.65
2023-11-24T22:26:47.868Z,2.69
2023-11-24T22:31:49.358Z,2.70
2023-11-24T22:36:51.430Z,2.74
2023-11-24T22:41:53.089Z,2.71
2023-11-24T22:46:54.649Z,2.62
2023-11-24T22:51:56.668Z,2.54
2023-11-24T22:56:57.921Z,2.46
2023-11-24T23:02:00.113Z,2.47
2023-11-24T23:07:01.797Z,2.46
2023-11-24T23:12:03.328Z,2.54
2023-11-24T23:17:06.335Z,2.70
2023-11-24T23:22:09.351Z,2.82
2023-11-24T23:27:13.671Z,2.90
2023-11-24T23:32:16.826Z,2.99
2023-11-24T23:37:18.754Z,3.06
2023-11-24T23:42:20.125Z,3.12
2023-11-24T23:47:22.241Z,3.14
2023-11-24T23:52:23.704Z,3.20
2023-11-24T23:57:25.731Z,3.25
